Weather at Ebon Airport

Public forecast

Using degrees Celsius for public forecast. Weather courtesy of forecast.io.

Closest aviation weather report (METAR) to Ebon Airport

Report is more than 6 hours old.

Closest report is Marshall Islands International Airport, 211.1 nm (391.0 km) NE.

2024/05/29 07:59 (retrieved 11 hours ago)

PKMJ 290759Z 06013K 15SM FEW015 SCT050 BKN120 OVC300 28/25 A2984

Closest aviation forecast (TAF) to Ebon Airport

Closest forecast is Marshall Islands International Airport, 211.1 nm (391.0 km) NE.

2024/05/29 18:27 (retrieved 40 minutes ago)

TAF TAF PKMJ 291723Z 2918/3018 09008KT P6SM VCSH SCT015 SCT050 BKN100